KFNL/FNL METAR and TAF weather

Enter ICAO airport designator
Station Type Date Time Source
KFNL METAR 2019/10/15 07:56 UTC NOAA

KFNL 150756Z AUTO 02011KT 10SM CLR 07/M02 A3012 RMK AO2 SLP159 T00671017


Station Type Date Time Source
KFNL Decoded METAR 2019/10/15 07:56 UTC NOAA

Fort Collins/Loveland, Fort Collins-Loveland Municipal Airport, CO, United States (KFNL) 40-27N 105-01W
Oct 15, 2019 - 03:56 AM EDT / 2019.10.15 0756 UTC
Wind: from the NNE (020 degrees) at 13 MPH (11 KT):0
Visibility: 10 mile(s):0
Sky conditions: clear
Temperature: 44.1 F (6.7 C)
Dew Point: 28.9 F (-1.7 C)
Relative Humidity: 54%
Pressure (altimeter): 30.12 in. Hg (1019 hPa)
ob: KFNL 150756Z AUTO 02011KT 10SM CLR 07/M02 A3012 RMK AO2 SLP159 T00671017
cycle: 8

Station Type Date Time Source
KFNL TAF UTC NOAA

Error!

Example: see airport list